Latest Coastal Weather Observations for Cape Byron

IDN60701

Issued at 9:41 am EST Tuesday 22 August 2017 (issued every 10 minutes, with the page automatically refreshed every 10 minutes)

About coastal observations | Map of coastal stations | Coastal observations for NSW | Marine services | Other Formats
Station Details ID: 058216 Name: CAPE BYRON AWS Lat: -28.64 Lon: 153.64 Height: 95.0 m
Data from the previous 72 hours. | See also: Recent months at Cape Byron
Date/Time
EST
Temp
°C
Wind Pressure Rain since
9am
mm
Weather Cloud Vis
km
Sea
Height
m
Swell
Dir  Spd
kts
Gust
kts
hPa Trend Height
m
Period
s
Dir
22/09:30am 19.2 N 11 18 1018.9 - 0.0 - - - - - - -
22/09:00am 19.1 N 10 15 1019.3 - 1.2 - - - - - - -
22/08:30am 18.8 N 11 15 1019.5 - 1.2 - - - - - - -
22/08:00am 18.2 N 10 14 1019.4 - 1.2 - - - - - - -
22/07:30am 18.1 N 9 16 1019.1 - 1.2 - - - - - - -
22/07:00am 17.6 NNW 11 17 1018.7 - 1.2 - - - - - - -
22/06:30am 17.4 N 12 18 1018.2 - 1.2 - - - - - - -
22/06:00am 17.4 N 12 20 1018.1 - 1.2 - - - - - - -
22/05:30am 17.3 N 13 20 1018.1 - 1.2 - - - - - - -
22/05:00am 17.2 NNW 10 16 1018.1 - 1.2 - - - - - - -
22/04:30am 16.9 NNW 8 13 1017.9 - 1.2 - - - - - - -
22/04:00am 16.7 NNW 8 14 1017.9 - 1.2 - - - - - - -
22/03:30am 16.7 NNW 7 13 1017.8 - 1.2 - - - - - - -
22/03:00am 16.8 NNW 10 15 1017.7 - 1.2 Recent precip. - - - - - -
22/02:30am 16.7 NNW 9 15 1017.8 - 1.2 - - - - - - -
22/02:00am 16.3 N 11 15 1018.2 - 1.0 - - - - - - -
22/01:30am 16.5 NNW 7 13 1018.7 - 0.6 - - - - - - -
22/01:00am 16.2 N 9 13 1018.7 - 0.6 - - - - - - -
22/12:30am 16.3 N 5 8 1019.1 - 0.2 - - - - - - -
22/12:00am 16.2 NNW 6 10 1018.6 - 0.2 Rain - - - - - -
 
Date/Time
EST
Temp
°C
Wind Pressure Rain since
9am
mm
Weather Cloud Vis
km
Sea
Height
m
Swell
Dir  Spd
kts
Gust
kts
hPa Trend Height
m
Period
s
Dir
21/11:30pm 16.3 N 5 9 1019.1 - 0.0 - - - - - - -
21/11:00pm 16.4 N 5 7 1019.5 - 0.0 - - - - - - -
21/10:30pm 16.5 N 4 6 1019.5 - 0.0 - - - - - - -
21/10:00pm 16.5 N 5 10 1019.1 - 0.0 - - - - - - -
21/09:30pm 17.1 N 10 15 1018.8 - 0.0 - - - - - - -
21/09:00pm 17.3 NNW 7 12 1019.2 - 0.0 - - - - - - -
21/08:30pm 17.3 NNW 7 12 1019.3 - 0.0 - - - - - - -
21/08:00pm 17.5 N 8 12 1019.3 - 0.0 - - - - - - -
21/07:30pm 17.9 N 11 15 1019.3 - 0.0 - - - - - - -
21/07:00pm 17.8 NNE 11 15 1018.7 - 0.0 - - - - - - -
21/06:30pm 17.7 N 11 17 1018.6 - 0.0 - - - - - - -
21/06:00pm 17.7 NNE 11 16 1018.5 - 0.0 - - - - - - -
21/05:30pm 17.5 NNE 11 15 1018.5 - 0.0 - - - - - - -
21/05:00pm 17.5 NE 11 15 1018.3 - 0.0 - - - - - - -
21/04:30pm 17.6 NNE 9 12 1018.3 - 0.0 - - - - - - -
21/04:00pm 17.6 NE 12 16 1017.8 - 0.0 - - - - - - -
21/03:30pm 18.0 ENE 9 12 1018.1 - 0.0 - - - - - - -
21/03:00pm 18.1 ENE 7 11 1018.3 - 0.0 - - - - - - -
21/02:30pm 18.5 ENE 6 9 1018.7 - 0.0 - - - - - - -
21/02:00pm 19.4 E 7 10 1019.0 - 0.0 - - - - - - -
21/01:30pm 18.8 E 9 11 1019.3 - 0.0 - - - - - - -
21/01:00pm 19.4 E 9 12 1019.6 - 0.0 - - - - - - -
21/12:30pm 19.1 ESE 8 11 1020.5 - 0.0 - - - - - - -
21/12:00pm 19.2 SE 8 10 1021.0 - 0.0 - - - - - - -
21/11:30am 18.6 SE 8 10 1021.4 - 0.0 - - - - - - -
21/11:00am 18.0 SSW 6 9 1021.7 - 0.0 - - - - - - -
21/10:30am 17.4 SSW 9 11 1021.9 - 0.0 - - - - - - -
21/10:00am 17.2 SW 6 9 1022.1 - 0.0 - - - - - - -
21/09:30am 16.0 SW 9 13 1022.2 - 0.0 - - - - - - -
21/09:00am 14.8 SW 11 14 1022.3 - 0.0 - - - - - - -
21/08:30am 13.8 SW 10 14 1021.8 - 0.0 - - - - - - -
21/08:00am 13.0 WSW 12 16 1021.5 - 0.0 - - - - - - -
21/07:30am 12.3 WSW 13 17 1021.2 - 0.0 - - - - - - -
21/07:00am 11.7 WSW 14 19 1021.2 - 0.0 - - - - - - -
21/06:30am 11.6 WSW 16 20 1021.0 - 0.0 - - - - - - -
21/06:00am 11.8 WSW 17 22 1020.7 - 0.0 - - - - - - -
21/05:30am 11.3 WSW 17 21 1019.9 - 0.0 - - - - - - -
21/05:00am 11.3 WSW 15 19 1019.6 - 0.0 - - - - - - -
21/04:30am 11.3 WSW 16 21 1019.4 - 0.0 - - - - - - -
21/04:00am 11.6 WSW 17 23 1019.3 - 0.0 - - - - - - -
21/03:30am 11.5 SW 17 21 1019.4 - 0.0 - - - - - - -
21/03:00am 11.6 SW 17 20 1019.7 - 0.0 - - - - - - -
21/02:30am 11.8 WSW 14 19 1019.9 - 0.0 - - - - - - -
21/02:00am 11.7 SW 17 20 1019.8 - 0.0 - - - - - - -
21/01:30am 11.9 SW 16 19 1019.9 - 0.0 - - - - - - -
21/01:00am 12.2 SW 15 17 1020.4 - 0.0 - - - - - - -
21/12:30am 12.1 SW 15 19 1020.7 - 0.0 - - - - - - -
21/12:00am 12.3 SW 16 20 1020.9 - 0.0 - - - - - - -
 
Date/Time
EST
Temp
°C
Wind Pressure Rain since
9am
mm
Weather Cloud Vis
km
Sea
Height
m
Swell
Dir  Spd
kts
Gust
kts
hPa Trend Height
m
Period
s
Dir
20/11:30pm 12.5 SW 16 20 1021.2 - 0.0 - - - - - - -
20/11:00pm 12.6 WSW 16 21 1021.1 - 0.0 - - - - - - -
20/10:30pm 12.7 SW 16 19 1020.7 - 0.0 - - - - - - -
20/10:00pm 13.2 SW 14 18 1020.8 - 0.0 - - - - - - -
20/09:30pm 13.3 SW 14 18 1020.8 - 0.0 - - - - - - -
20/09:00pm 13.3 SW 14 18 1020.5 - 0.0 - - - - - - -
20/08:30pm 13.4 SW 14 20 1020.5 - 0.0 - - - - - - -
20/08:00pm 13.8 SW 13 16 1020.3 - 0.0 - - - - - - -
20/07:30pm 14.9 SW 17 24 1020.4 - 0.0 - - - - - - -
20/07:00pm 15.3 SSW 21 27 1020.0 - 0.0 - - - - - - -
20/06:43pm 15.5 SSW 23 33 1019.7 - 0.0 - - - - - - -
20/06:30pm 15.8 SSW 27 33 1019.7 - 0.0 - - - - - - -
20/06:00pm 15.8 SSW 23 32 1019.4 - 0.0 - - - - - - -
20/05:30pm 15.8 SSW 25 31 1019.2 - 0.0 - - - - - - -
20/05:00pm 15.8 SSW 29 37 1018.9 - 0.0 - - - - - - -
20/04:30pm 16.1 SSW 28 35 1018.7 - 0.0 - - - - - - -
20/04:00pm 16.2 SSW 28 35 1018.4 - 0.0 - - - - - - -
20/03:30pm 16.1 SSW 28 33 1018.3 - 0.0 - - - - - - -
20/03:00pm 16.0 SSW 28 34 1018.3 - 0.0 - - - - - - -
20/02:30pm 15.8 SSW 31 36 1018.1 - 0.0 - - - - - - -
20/02:00pm 15.6 SSW 29 34 1018.2 - 0.0 - - - - - - -
20/01:30pm 15.6 SSW 28 33 1018.4 - 0.0 - - - - - - -
20/01:00pm 15.4 SSW 29 37 1018.7 - 0.0 - - - - - - -
20/12:55pm 15.3 SSW 27 37 1018.8 - 0.0 - - - - - - -
20/12:30pm 15.3 SSW 29 35 1018.9 - 0.0 - - - - - - -
20/12:02pm 15.5 SSW 22 32 1019.3 - 0.0 - - - - - - -
20/12:00pm 15.6 SSW 23 32 1019.3 - 0.0 - - - - - - -
20/11:30am 15.1 SSW 24 34 1019.5 - 0.0 - - - - - - -
20/11:07am 14.9 SW 21 32 1019.7 - 0.0 - - - - - - -
20/11:00am 15.0 SW 19 28 1019.8 - 0.0 - - - - - - -
20/10:30am 14.0 SW 23 33 1019.8 - 0.0 - - - - - - -
20/10:12am 14.2 SW 21 34 1019.9 - 0.0 - - - - - - -
20/10:00am 13.8 SW 24 32 1019.9 - 0.0 - - - - - - -
20/09:36am 13.6 SW 24 34 1019.8 - 0.0 - - - - - - -
20/09:30am 13.4 SW 25 33 1019.8 - 0.0 - - - - - - -
20/09:00am 12.7 SW 23 31 1019.8 - 0.0 - - - - - - -
20/08:30am 12.5 SW 22 33 1019.8 - 0.0 - - - - - - -
20/08:19am 12.2 SW 21 31 1019.7 - 0.0 - - - - - - -
20/08:00am 11.6 SW 21 29 1019.7 - 0.0 - - - - - - -
20/07:30am 11.2 SW 20 27 1019.5 - 0.0 - - - - - - -
20/07:00am 11.2 SW 19 26 1019.1 - 0.0 - - - - - - -
20/06:30am 10.5 SW 19 23 1018.9 - 0.0 - - - - - - -
20/06:00am 10.3 WSW 18 24 1018.5 - 0.0 - - - - - - -
20/05:30am 10.2 WSW 18 22 1018.2 - 0.0 - - - - - - -
20/05:00am 10.2 WSW 18 24 1017.9 - 0.0 - - - - - - -
20/04:30am 10.1 WSW 16 21 1017.8 - 0.0 - - - - - - -
20/04:00am 10.3 WSW 18 22 1017.4 - 0.0 - - - - - - -
20/03:30am 10.6 SW 18 22 1017.3 - 0.0 - - - - - - -
20/03:00am 10.9 SW 16 22 1017.2 - 0.0 - - - - - - -
20/02:30am 10.7 SW 17 22 1017.1 - 0.0 - - - - - - -
20/02:00am 10.6 SW 16 22 1017.1 - 0.0 - - - - - - -
20/01:30am 10.7 SW 15 19 1017.3 - 0.0 - - - - - - -
20/01:00am 11.2 WSW 17 21 1017.5 - 0.0 - - - - - - -
20/12:30am 11.1 WSW 18 25 1017.4 - 0.0 - - - - - - -
20/12:00am 11.2 WSW 20 25 1017.4 - 0.0 - - - - - - -
 
Date/Time
EST
Temp
°C
Wind Pressure Rain since
9am
mm
Weather Cloud Vis
km
Sea
Height
m
Swell
Dir  Spd
kts
Gust
kts
hPa Trend Height
m
Period
s
Dir
19/11:30pm 11.4 WSW 17 23 1017.7 - 0.0 - - - - - - -
19/11:00pm 11.7 WSW 16 19 1017.8 - 0.0 - - - - - - -
19/10:30pm 12.0 WSW 15 20 1017.6 - 0.0 - - - - - - -
19/10:00pm 12.4 SW 18 20 1017.5 - 0.0 - - - - - - -
19/09:30pm 12.7 WSW 15 19 1017.4 - 0.0 - - - - - - -
19/09:00pm 13.3 SW 16 20 1017.3 - 0.0 - - - - - - -
19/08:30pm 13.7 SW 18 23 1016.8 - 0.0 - - - - - - -
19/08:00pm 13.7 SW 18 23 1016.5 - 0.0 - - - - - - -
19/07:30pm 13.8 SW 16 20 1016.3 - 0.0 - - - - - - -
19/07:00pm 13.9 SW 14 18 1015.9 - 0.0 - - - - - - -
19/06:30pm 15.0 SSW 15 21 1015.6 - 0.0 - - - - - - -
19/06:00pm 15.8 SSW 18 22 1015.1 - 0.0 - - - - - - -
19/05:30pm 16.1 S 20 24 1014.6 - 0.0 - - - - - - -
19/05:00pm 16.0 SSW 21 25 1013.9 - 0.0 - - - - - - -
19/04:30pm 16.4 S 21 25 1013.5 - 0.0 - - - - - - -
19/04:00pm 16.7 S 22 28 1012.9 - 0.0 - - - - - - -
19/03:41pm 16.9 S 23 29 1012.6 - 0.0 - - - - - - -
19/03:30pm 18.2 SSW 18 27 1012.5 - 0.0 - - - - - - -
19/03:00pm 18.7 SW 19 29 1012.2 - 0.0 - - - - - - -
19/02:49pm 18.8 SW 17 30 1012.1 - 0.0 - - - - - - -
19/02:30pm 18.8 SW 17 24 1012.1 - 0.0 - - - - - - -
19/02:25pm 18.8 SW 15 25 1012.1 - 0.0 - - - - - - -
19/02:00pm 18.6 SW 16 24 1012.1 - 0.0 - - - - - - -
19/01:36pm 18.4 SW 18 32 1012.1 - 0.0 - - - - - - -
19/01:30pm 18.1 SW 19 27 1012.2 - 0.0 - - - - - - -
19/01:00pm 18.2 WSW 18 28 1012.4 - 0.0 - - - - - - -
19/12:34pm 17.7 WSW 16 26 1012.6 - 0.0 - - - - - - -
19/12:30pm 17.6 WSW 15 24 1012.7 - 0.0 - - - - - - -
19/12:09pm 17.2 SW 15 25 1013.1 - 0.0 - - - - - - -
19/12:00pm 16.9 WSW 16 25 1013.2 - 0.0 - - - - - - -
19/11:30am 16.2 WSW 17 24 1013.8 - 0.0 - - - - - - -
19/11:25am 16.5 SW 17 27 1013.9 - 0.0 - - - - - - -
19/11:00am 15.6 WSW 19 27 1014.3 - 0.0 - - - - - - -
19/10:30am 15.2 WSW 16 25 1014.7 - 0.0 - - - - - - -
19/10:08am 14.4 WSW 19 29 1015.0 - 0.0 - - - - - - -
19/10:00am 14.4 WSW 20 27 1015.0 - 0.0 - - - - - - -

Other Formats:

Comma delimited format used in spreadsheet applications
http://www.bom.gov.au/fwo/IDN60701/IDN60701.94599.axf

JavaScript Object Notation format (JSON) in row-major order
http://www.bom.gov.au/fwo/IDN60701/IDN60701.94599.json